sensor_id;sensor_type;location;lat;lon;timestamp;P1;durP1;ratioP1;P2;durP2;ratioP2
74793;SDS011;63320;50.768;6.724;2024-01-30T00:01:23;11.93;;;7.47;;
74793;SDS011;63320;50.768;6.724;2024-01-30T00:03:49;13.13;;;8.02;;
74793;SDS011;63320;50.768;6.724;2024-01-30T00:06:14;16.38;;;8.52;;
74793;SDS011;63320;50.768;6.724;2024-01-30T00:08:39;11.48;;;8.05;;
74793;SDS011;63320;50.768;6.724;2024-01-30T00:11:05;11.75;;;7.47;;
74793;SDS011;63320;50.768;6.724;2024-01-30T00:13:31;12.60;;;7.43;;
74793;SDS011;63320;50.768;6.724;2024-01-30T00:15:57;13.15;;;7.97;;
74793;SDS011;63320;50.768;6.724;2024-01-30T00:18:22;12.93;;;7.32;;
74793;SDS011;63320;50.768;6.724;2024-01-30T00:20:47;12.88;;;7.43;;
74793;SDS011;63320;50.768;6.724;2024-01-30T00:23:13;13.80;;;7.95;;
74793;SDS011;63320;50.768;6.724;2024-01-30T00:25:38;11.40;;;6.72;;
74793;SDS011;63320;50.768;6.724;2024-01-30T00:28:03;13.90;;;7.85;;
74793;SDS011;63320;50.768;6.724;2024-01-30T00:30:30;14.18;;;8.13;;
74793;SDS011;63320;50.768;6.724;2024-01-30T00:32:55;12.82;;;8.15;;
74793;SDS011;63320;50.768;6.724;2024-01-30T00:35:21;15.73;;;7.32;;
74793;SDS011;63320;50.768;6.724;2024-01-30T00:37:46;14.13;;;7.68;;
74793;SDS011;63320;50.768;6.724;2024-01-30T00:40:12;15.13;;;7.75;;
74793;SDS011;63320;50.768;6.724;2024-01-30T00:42:37;13.00;;;7.38;;
74793;SDS011;63320;50.768;6.724;2024-01-30T00:45:03;15.38;;;7.65;;
74793;SDS011;63320;50.768;6.724;2024-01-30T00:47:30;12.38;;;6.80;;
74793;SDS011;63320;50.768;6.724;2024-01-30T00:49:56;12.60;;;7.38;;
74793;SDS011;63320;50.768;6.724;2024-01-30T00:52:22;10.18;;;6.97;;
74793;SDS011;63320;50.768;6.724;2024-01-30T00:54:47;11.95;;;7.53;;
74793;SDS011;63320;50.768;6.724;2024-01-30T00:57:12;12.18;;;6.70;;
74793;SDS011;63320;50.768;6.724;2024-01-30T00:59:38;13.35;;;7.25;;
74793;SDS011;63320;50.768;6.724;2024-01-30T01:02:03;13.35;;;7.47;;
74793;SDS011;63320;50.768;6.724;2024-01-30T01:04:30;11.18;;;6.93;;
74793;SDS011;63320;50.768;6.724;2024-01-30T01:06:55;12.90;;;7.45;;
74793;SDS011;63320;50.768;6.724;2024-01-30T01:09:21;11.25;;;6.97;;
74793;SDS011;63320;50.768;6.724;2024-01-30T01:11:46;10.20;;;6.70;;
74793;SDS011;63320;50.768;6.724;2024-01-30T01:14:11;12.48;;;6.80;;
74793;SDS011;63320;50.768;6.724;2024-01-30T01:16:37;11.82;;;6.90;;
74793;SDS011;63320;50.768;6.724;2024-01-30T01:19:02;11.35;;;6.65;;
74793;SDS011;63320;50.768;6.724;2024-01-30T01:21:29;10.07;;;6.53;;
74793;SDS011;63320;50.768;6.724;2024-01-30T01:23:54;11.25;;;6.72;;
74793;SDS011;63320;50.768;6.724;2024-01-30T01:26:19;13.27;;;6.50;;
74793;SDS011;63320;50.768;6.724;2024-01-30T01:28:45;12.38;;;7.00;;
74793;SDS011;63320;50.768;6.724;2024-01-30T01:31:10;11.10;;;6.60;;
74793;SDS011;63320;50.768;6.724;2024-01-30T01:33:35;10.00;;;6.22;;
74793;SDS011;63320;50.768;6.724;2024-01-30T01:36:01;13.15;;;6.85;;
74793;SDS011;63320;50.768;6.724;2024-01-30T01:38:27;10.82;;;6.18;;
74793;SDS011;63320;50.768;6.724;2024-01-30T01:40:53;12.07;;;6.85;;
74793;SDS011;63320;50.768;6.724;2024-01-30T01:43:18;10.80;;;6.70;;
74793;SDS011;63320;50.768;6.724;2024-01-30T01:45:43;12.90;;;6.38;;
74793;SDS011;63320;50.768;6.724;2024-01-30T01:48:09;12.52;;;6.63;;
74793;SDS011;63320;50.768;6.724;2024-01-30T01:50:34;10.90;;;6.65;;
74793;SDS011;63320;50.768;6.724;2024-01-30T01:53:01;10.93;;;6.47;;
74793;SDS011;63320;50.768;6.724;2024-01-30T01:55:28;11.43;;;7.30;;
74793;SDS011;63320;50.768;6.724;2024-01-30T01:57:55;10.95;;;6.70;;
74793;SDS011;63320;50.768;6.724;2024-01-30T02:00:21;10.35;;;6.60;;
74793;SDS011;63320;50.768;6.724;2024-01-30T02:02:48;12.18;;;6.18;;
74793;SDS011;63320;50.768;6.724;2024-01-30T02:05:15;10.73;;;6.55;;
74793;SDS011;63320;50.768;6.724;2024-01-30T02:07:41;10.93;;;6.47;;
74793;SDS011;63320;50.768;6.724;2024-01-30T02:10:08;11.38;;;6.25;;
74793;SDS011;63320;50.768;6.724;2024-01-30T02:12:35;11.23;;;5.88;;
74793;SDS011;63320;50.768;6.724;2024-01-30T02:15:00;11.65;;;6.13;;
74793;SDS011;63320;50.768;6.724;2024-01-30T02:17:26;10.07;;;6.32;;
74793;SDS011;63320;50.768;6.724;2024-01-30T02:19:51;10.75;;;6.43;;
74793;SDS011;63320;50.768;6.724;2024-01-30T02:22:18;14.20;;;6.30;;
74793;SDS011;63320;50.768;6.724;2024-01-30T02:24:44;11.48;;;6.43;;
74793;SDS011;63320;50.768;6.724;2024-01-30T02:27:09;9.27;;;6.00;;
74793;SDS011;63320;50.768;6.724;2024-01-30T02:29:35;13.45;;;6.50;;
74793;SDS011;63320;50.768;6.724;2024-01-30T02:32:00;11.90;;;7.05;;
74793;SDS011;63320;50.768;6.724;2024-01-30T02:34:25;11.48;;;6.63;;
74793;SDS011;63320;50.768;6.724;2024-01-30T02:36:51;12.48;;;6.30;;
74793;SDS011;63320;50.768;6.724;2024-01-30T02:39:17;10.25;;;6.43;;
74793;SDS011;63320;50.768;6.724;2024-01-30T02:41:43;10.52;;;6.78;;
74793;SDS011;63320;50.768;6.724;2024-01-30T02:44:08;12.50;;;6.18;;
74793;SDS011;63320;50.768;6.724;2024-01-30T02:46:33;12.40;;;6.20;;
74793;SDS011;63320;50.768;6.724;2024-01-30T02:48:59;13.18;;;6.63;;
74793;SDS011;63320;50.768;6.724;2024-01-30T02:51:24;10.90;;;6.60;;
74793;SDS011;63320;50.768;6.724;2024-01-30T02:53:49;10.07;;;6.75;;
74793;SDS011;63320;50.768;6.724;2024-01-30T02:56:16;12.85;;;6.93;;
74793;SDS011;63320;50.768;6.724;2024-01-30T02:58:41;12.18;;;6.60;;
74793;SDS011;63320;50.768;6.724;2024-01-30T03:01:07;13.50;;;7.28;;
74793;SDS011;63320;50.768;6.724;2024-01-30T03:03:32;13.75;;;6.75;;
74793;SDS011;63320;50.768;6.724;2024-01-30T03:05:58;14.43;;;6.97;;
74793;SDS011;63320;50.768;6.724;2024-01-30T03:08:23;12.30;;;6.80;;
74793;SDS011;63320;50.768;6.724;2024-01-30T03:10:48;11.10;;;6.82;;
74793;SDS011;63320;50.768;6.724;2024-01-30T03:13:15;11.13;;;6.43;;
74793;SDS011;63320;50.768;6.724;2024-01-30T03:15:40;12.07;;;6.95;;
74793;SDS011;63320;50.768;6.724;2024-01-30T03:18:06;10.88;;;6.68;;
74793;SDS011;63320;50.768;6.724;2024-01-30T03:20:31;12.25;;;6.80;;
74793;SDS011;63320;50.768;6.724;2024-01-30T03:22:57;11.55;;;6.80;;
74793;SDS011;63320;50.768;6.724;2024-01-30T03:25:24;12.13;;;6.50;;
74793;SDS011;63320;50.768;6.724;2024-01-30T03:27:50;11.15;;;6.53;;
74793;SDS011;63320;50.768;6.724;2024-01-30T03:30:16;10.77;;;6.20;;
74793;SDS011;63320;50.768;6.724;2024-01-30T03:32:42;11.02;;;6.30;;
74793;SDS011;63320;50.768;6.724;2024-01-30T03:35:07;11.50;;;6.47;;
74793;SDS011;63320;50.768;6.724;2024-01-30T03:37:33;11.05;;;6.47;;
74793;SDS011;63320;50.768;6.724;2024-01-30T03:39:59;13.90;;;6.40;;
74793;SDS011;63320;50.768;6.724;2024-01-30T03:42:24;10.82;;;5.93;;
74793;SDS011;63320;50.768;6.724;2024-01-30T03:44:49;12.07;;;6.18;;
74793;SDS011;63320;50.768;6.724;2024-01-30T03:47:16;11.30;;;6.22;;
74793;SDS011;63320;50.768;6.724;2024-01-30T03:49:41;8.95;;;5.88;;
74793;SDS011;63320;50.768;6.724;2024-01-30T03:52:06;10.40;;;5.85;;
74793;SDS011;63320;50.768;6.724;2024-01-30T03:54:32;9.45;;;6.13;;
74793;SDS011;63320;50.768;6.724;2024-01-30T03:56:57;9.77;;;5.72;;
74793;SDS011;63320;50.768;6.724;2024-01-30T03:59:22;9.88;;;6.30;;
74793;SDS011;63320;50.768;6.724;2024-01-30T04:01:48;11.40;;;6.15;;
74793;SDS011;63320;50.768;6.724;2024-01-30T04:04:14;11.05;;;6.25;;
74793;SDS011;63320;50.768;6.724;2024-01-30T04:06:40;11.40;;;6.22;;
74793;SDS011;63320;50.768;6.724;2024-01-30T04:09:05;11.63;;;5.93;;
74793;SDS011;63320;50.768;6.724;2024-01-30T04:11:30;10.23;;;6.68;;
74793;SDS011;63320;50.768;6.724;2024-01-30T04:13:56;11.38;;;6.05;;
74793;SDS011;63320;50.768;6.724;2024-01-30T04:16:21;11.10;;;6.28;;
74793;SDS011;63320;50.768;6.724;2024-01-30T04:18:47;12.70;;;6.60;;
74793;SDS011;63320;50.768;6.724;2024-01-30T04:21:14;9.85;;;6.10;;
74793;SDS011;63320;50.768;6.724;2024-01-30T04:23:39;10.57;;;6.30;;
74793;SDS011;63320;50.768;6.724;2024-01-30T04:26:05;10.32;;;5.57;;
74793;SDS011;63320;50.768;6.724;2024-01-30T04:28:30;10.45;;;6.10;;
74793;SDS011;63320;50.768;6.724;2024-01-30T04:30:56;9.63;;;6.10;;
74793;SDS011;63320;50.768;6.724;2024-01-30T04:33:21;9.73;;;6.00;;
74793;SDS011;63320;50.768;6.724;2024-01-30T04:35:47;9.43;;;6.10;;
74793;SDS011;63320;50.768;6.724;2024-01-30T04:38:13;10.57;;;5.70;;
74793;SDS011;63320;50.768;6.724;2024-01-30T04:40:39;10.88;;;6.15;;
74793;SDS011;63320;50.768;6.724;2024-01-30T04:43:04;9.90;;;5.90;;
74793;SDS011;63320;50.768;6.724;2024-01-30T04:45:29;8.88;;;5.75;;
74793;SDS011;63320;50.768;6.724;2024-01-30T04:47:55;9.38;;;5.38;;
74793;SDS011;63320;50.768;6.724;2024-01-30T04:50:20;10.13;;;5.47;;
74793;SDS011;63320;50.768;6.724;2024-01-30T04:52:45;9.40;;;5.53;;
74793;SDS011;63320;50.768;6.724;2024-01-30T04:55:12;8.30;;;5.07;;
74793;SDS011;63320;50.768;6.724;2024-01-30T04:57:37;8.90;;;5.20;;
74793;SDS011;63320;50.768;6.724;2024-01-30T05:00:03;9.02;;;5.05;;
74793;SDS011;63320;50.768;6.724;2024-01-30T05:02:29;10.93;;;6.40;;
74793;SDS011;63320;50.768;6.724;2024-01-30T05:04:54;9.80;;;5.68;;
74793;SDS011;63320;50.768;6.724;2024-01-30T05:07:19;9.25;;;5.75;;
74793;SDS011;63320;50.768;6.724;2024-01-30T05:09:45;10.60;;;5.82;;
74793;SDS011;63320;50.768;6.724;2024-01-30T05:12:11;9.75;;;5.65;;
74793;SDS011;63320;50.768;6.724;2024-01-30T05:14:37;11.85;;;6.35;;
74793;SDS011;63320;50.768;6.724;2024-01-30T05:17:02;9.57;;;6.07;;
74793;SDS011;63320;50.768;6.724;2024-01-30T05:19:28;10.82;;;5.80;;
74793;SDS011;63320;50.768;6.724;2024-01-30T05:21:53;9.18;;;5.47;;
74793;SDS011;63320;50.768;6.724;2024-01-30T05:24:18;10.20;;;5.70;;
74793;SDS011;63320;50.768;6.724;2024-01-30T05:26:44;9.30;;;5.45;;
74793;SDS011;63320;50.768;6.724;2024-01-30T05:29:10;8.88;;;5.57;;
74793;SDS011;63320;50.768;6.724;2024-01-30T05:31:36;11.23;;;5.57;;
74793;SDS011;63320;50.768;6.724;2024-01-30T05:34:01;9.68;;;5.80;;
74793;SDS011;63320;50.768;6.724;2024-01-30T05:36:26;9.25;;;5.70;;
74793;SDS011;63320;50.768;6.724;2024-01-30T05:38:52;11.77;;;5.65;;
74793;SDS011;63320;50.768;6.724;2024-01-30T05:41:17;10.02;;;6.10;;
74793;SDS011;63320;50.768;6.724;2024-01-30T05:43:43;10.85;;;5.53;;
74793;SDS011;63320;50.768;6.724;2024-01-30T05:46:09;11.02;;;5.88;;
74793;SDS011;63320;50.768;6.724;2024-01-30T05:48:35;11.93;;;6.28;;
74793;SDS011;63320;50.768;6.724;2024-01-30T05:51:00;10.38;;;5.88;;
74793;SDS011;63320;50.768;6.724;2024-01-30T05:53:25;9.52;;;5.90;;
74793;SDS011;63320;50.768;6.724;2024-01-30T05:55:51;9.02;;;5.10;;
74793;SDS011;63320;50.768;6.724;2024-01-30T05:58:16;10.43;;;5.63;;
74793;SDS011;63320;50.768;6.724;2024-01-30T06:00:41;7.88;;;4.65;;
74793;SDS011;63320;50.768;6.724;2024-01-30T06:03:08;11.57;;;6.50;;
74793;SDS011;63320;50.768;6.724;2024-01-30T06:05:33;13.48;;;6.68;;
74793;SDS011;63320;50.768;6.724;2024-01-30T06:07:59;11.70;;;6.68;;
74793;SDS011;63320;50.768;6.724;2024-01-30T06:10:24;11.18;;;5.82;;
74793;SDS011;63320;50.768;6.724;2024-01-30T06:12:49;10.40;;;5.70;;
74793;SDS011;63320;50.768;6.724;2024-01-30T06:15:15;12.63;;;5.72;;
74793;SDS011;63320;50.768;6.724;2024-01-30T06:17:40;11.35;;;6.32;;
74793;SDS011;63320;50.768;6.724;2024-01-30T06:20:07;10.15;;;5.53;;
74793;SDS011;63320;50.768;6.724;2024-01-30T06:22:32;12.75;;;5.82;;
74793;SDS011;63320;50.768;6.724;2024-01-30T06:24:58;10.05;;;5.75;;
74793;SDS011;63320;50.768;6.724;2024-01-30T06:27:23;11.25;;;6.10;;
74793;SDS011;63320;50.768;6.724;2024-01-30T06:29:49;11.38;;;6.50;;
74793;SDS011;63320;50.768;6.724;2024-01-30T06:32:14;12.05;;;6.30;;
74793;SDS011;63320;50.768;6.724;2024-01-30T06:34:40;8.75;;;6.07;;
74793;SDS011;63320;50.768;6.724;2024-01-30T06:37:07;12.48;;;6.93;;
74793;SDS011;63320;50.768;6.724;2024-01-30T06:39:32;11.45;;;6.57;;
74793;SDS011;63320;50.768;6.724;2024-01-30T06:41:57;12.60;;;6.45;;
74793;SDS011;63320;50.768;6.724;2024-01-30T06:44:23;17.45;;;6.50;;
74793;SDS011;63320;50.768;6.724;2024-01-30T06:46:48;14.27;;;6.80;;
74793;SDS011;63320;50.768;6.724;2024-01-30T06:49:13;13.85;;;6.60;;
74793;SDS011;63320;50.768;6.724;2024-01-30T06:51:39;11.48;;;6.97;;
74793;SDS011;63320;50.768;6.724;2024-01-30T06:54:05;11.50;;;6.35;;
74793;SDS011;63320;50.768;6.724;2024-01-30T06:56:31;9.75;;;6.63;;
74793;SDS011;63320;50.768;6.724;2024-01-30T06:58:56;12.32;;;6.25;;
74793;SDS011;63320;50.768;6.724;2024-01-30T07:01:25;10.27;;;6.68;;
74793;SDS011;63320;50.768;6.724;2024-01-30T07:03:52;10.38;;;5.97;;
74793;SDS011;63320;50.768;6.724;2024-01-30T07:06:18;13.02;;;7.35;;
74793;SDS011;63320;50.768;6.724;2024-01-30T07:08:45;14.63;;;6.95;;
74793;SDS011;63320;50.768;6.724;2024-01-30T07:11:17;20.13;;;7.90;;
74793;SDS011;63320;50.768;6.724;2024-01-30T07:13:43;12.23;;;6.30;;
74793;SDS011;63320;50.768;6.724;2024-01-30T07:16:08;9.32;;;6.25;;
74793;SDS011;63320;50.768;6.724;2024-01-30T07:18:34;12.20;;;6.10;;
74793;SDS011;63320;50.768;6.724;2024-01-30T07:20:59;10.77;;;5.80;;
74793;SDS011;63320;50.768;6.724;2024-01-30T07:23:24;11.52;;;5.75;;
74793;SDS011;63320;50.768;6.724;2024-01-30T07:25:50;9.75;;;5.70;;
74793;SDS011;63320;50.768;6.724;2024-01-30T07:28:16;9.80;;;5.60;;
74793;SDS011;63320;50.768;6.724;2024-01-30T07:30:42;10.35;;;5.85;;
74793;SDS011;63320;50.768;6.724;2024-01-30T07:33:07;10.00;;;5.82;;
74793;SDS011;63320;50.768;6.724;2024-01-30T07:35:32;13.48;;;6.97;;
74793;SDS011;63320;50.768;6.724;2024-01-30T07:37:58;12.27;;;6.88;;
74793;SDS011;63320;50.768;6.724;2024-01-30T07:40:23;11.07;;;6.13;;
74793;SDS011;63320;50.768;6.724;2024-01-30T07:42:49;11.18;;;5.75;;
74793;SDS011;63320;50.768;6.724;2024-01-30T07:45:15;12.45;;;6.50;;
74793;SDS011;63320;50.768;6.724;2024-01-30T07:47:41;10.48;;;6.80;;
74793;SDS011;63320;50.768;6.724;2024-01-30T07:50:06;11.02;;;6.47;;
74793;SDS011;63320;50.768;6.724;2024-01-30T07:52:32;15.18;;;6.10;;
74793;SDS011;63320;50.768;6.724;2024-01-30T07:54:58;12.23;;;6.05;;
74793;SDS011;63320;50.768;6.724;2024-01-30T07:57:23;9.20;;;5.93;;
74793;SDS011;63320;50.768;6.724;2024-01-30T07:59:49;13.00;;;6.45;;
74793;SDS011;63320;50.768;6.724;2024-01-30T08:02:15;9.85;;;6.20;;
74793;SDS011;63320;50.768;6.724;2024-01-30T08:04:41;12.80;;;7.05;;
74793;SDS011;63320;50.768;6.724;2024-01-30T08:07:06;12.27;;;7.00;;
74793;SDS011;63320;50.768;6.724;2024-01-30T08:09:31;10.43;;;6.47;;
74793;SDS011;63320;50.768;6.724;2024-01-30T08:11:57;11.85;;;6.72;;
74793;SDS011;63320;50.768;6.724;2024-01-30T08:14:22;12.10;;;6.80;;
74793;SDS011;63320;50.768;6.724;2024-01-30T08:16:48;11.70;;;6.40;;
74793;SDS011;63320;50.768;6.724;2024-01-30T08:19:15;10.30;;;6.15;;
74793;SDS011;63320;50.768;6.724;2024-01-30T08:21:40;13.07;;;6.57;;
74793;SDS011;63320;50.768;6.724;2024-01-30T08:24:06;14.25;;;7.22;;
74793;SDS011;63320;50.768;6.724;2024-01-30T08:26:32;13.25;;;6.97;;
74793;SDS011;63320;50.768;6.724;2024-01-30T08:28:58;13.60;;;6.57;;
74793;SDS011;63320;50.768;6.724;2024-01-30T08:31:23;11.10;;;6.53;;
74793;SDS011;63320;50.768;6.724;2024-01-30T08:33:49;15.95;;;6.38;;
74793;SDS011;63320;50.768;6.724;2024-01-30T08:36:16;12.57;;;7.07;;
74793;SDS011;63320;50.768;6.724;2024-01-30T08:38:41;13.10;;;6.90;;
74793;SDS011;63320;50.768;6.724;2024-01-30T08:41:07;14.40;;;6.13;;
74793;SDS011;63320;50.768;6.724;2024-01-30T08:43:32;20.20;;;8.13;;
74793;SDS011;63320;50.768;6.724;2024-01-30T08:45:58;21.55;;;6.35;;
74793;SDS011;63320;50.768;6.724;2024-01-30T08:48:23;14.27;;;5.60;;
74793;SDS011;63320;50.768;6.724;2024-01-30T08:50:49;14.98;;;6.95;;
74793;SDS011;63320;50.768;6.724;2024-01-30T08:53:16;9.20;;;5.07;;
74793;SDS011;63320;50.768;6.724;2024-01-30T08:55:41;17.52;;;6.80;;
74793;SDS011;63320;50.768;6.724;2024-01-30T08:58:06;11.43;;;6.53;;
74793;SDS011;63320;50.768;6.724;2024-01-30T09:00:32;11.52;;;6.10;;
74793;SDS011;63320;50.768;6.724;2024-01-30T09:02:57;11.73;;;6.80;;
74793;SDS011;63320;50.768;6.724;2024-01-30T09:05:22;10.15;;;6.65;;
74793;SDS011;63320;50.768;6.724;2024-01-30T09:07:48;11.85;;;7.13;;
74793;SDS011;63320;50.768;6.724;2024-01-30T09:10:14;10.00;;;5.90;;
74793;SDS011;63320;50.768;6.724;2024-01-30T09:12:40;13.80;;;6.18;;
74793;SDS011;63320;50.768;6.724;2024-01-30T09:15:05;12.63;;;6.80;;
74793;SDS011;63320;50.768;6.724;2024-01-30T09:17:31;10.73;;;6.35;;
74793;SDS011;63320;50.768;6.724;2024-01-30T09:19:57;15.95;;;5.90;;
74793;SDS011;63320;50.768;6.724;2024-01-30T09:22:22;10.43;;;6.50;;
74793;SDS011;63320;50.768;6.724;2024-01-30T09:24:47;11.70;;;5.00;;
74793;SDS011;63320;50.768;6.724;2024-01-30T09:27:14;11.95;;;6.20;;
74793;SDS011;63320;50.768;6.724;2024-01-30T09:29:39;12.02;;;5.78;;
74793;SDS011;63320;50.768;6.724;2024-01-30T09:32:05;14.38;;;6.65;;
74793;SDS011;63320;50.768;6.724;2024-01-30T09:34:31;12.88;;;5.25;;
74793;SDS011;63320;50.768;6.724;2024-01-30T09:36:56;19.33;;;6.00;;
74793;SDS011;63320;50.768;6.724;2024-01-30T09:39:21;15.40;;;5.53;;
74793;SDS011;63320;50.768;6.724;2024-01-30T09:41:48;10.40;;;6.05;;
74793;SDS011;63320;50.768;6.724;2024-01-30T09:44:16;10.82;;;6.15;;
74793;SDS011;63320;50.768;6.724;2024-01-30T09:46:43;12.73;;;6.30;;
74793;SDS011;63320;50.768;6.724;2024-01-30T09:49:10;17.70;;;5.20;;
74793;SDS011;63320;50.768;6.724;2024-01-30T09:51:36;12.85;;;5.65;;
74793;SDS011;63320;50.768;6.724;2024-01-30T09:54:02;11.20;;;5.72;;
74793;SDS011;63320;50.768;6.724;2024-01-30T09:56:29;10.68;;;6.38;;
74793;SDS011;63320;50.768;6.724;2024-01-30T09:58:54;10.82;;;5.97;;
74793;SDS011;63320;50.768;6.724;2024-01-30T10:01:21;8.80;;;5.65;;
74793;SDS011;63320;50.768;6.724;2024-01-30T10:03:47;10.77;;;5.85;;
74793;SDS011;63320;50.768;6.724;2024-01-30T10:06:12;10.55;;;5.35;;
74793;SDS011;63320;50.768;6.724;2024-01-30T10:08:39;10.85;;;5.63;;
74793;SDS011;63320;50.768;6.724;2024-01-30T10:11:04;10.93;;;5.97;;
74793;SDS011;63320;50.768;6.724;2024-01-30T10:13:29;11.52;;;6.35;;
74793;SDS011;63320;50.768;6.724;2024-01-30T10:15:55;21.45;;;5.15;;
74793;SDS011;63320;50.768;6.724;2024-01-30T10:18:21;11.73;;;6.15;;
74793;SDS011;63320;50.768;6.724;2024-01-30T10:20:47;12.30;;;5.07;;
74793;SDS011;63320;50.768;6.724;2024-01-30T10:23:12;13.50;;;5.22;;
74793;SDS011;63320;50.768;6.724;2024-01-30T10:25:38;8.88;;;5.43;;
74793;SDS011;63320;50.768;6.724;2024-01-30T10:28:03;9.70;;;4.85;;
74793;SDS011;63320;50.768;6.724;2024-01-30T10:30:29;12.00;;;5.32;;
74793;SDS011;63320;50.768;6.724;2024-01-30T10:32:55;11.10;;;5.00;;
74793;SDS011;63320;50.768;6.724;2024-01-30T10:35:21;10.55;;;5.32;;
74793;SDS011;63320;50.768;6.724;2024-01-30T10:37:47;12.65;;;5.57;;
74793;SDS011;63320;50.768;6.724;2024-01-30T10:40:13;10.30;;;5.03;;
74793;SDS011;63320;50.768;6.724;2024-01-30T10:42:40;11.50;;;5.03;;
74793;SDS011;63320;50.768;6.724;2024-01-30T10:45:08;11.20;;;5.32;;
74793;SDS011;63320;50.768;6.724;2024-01-30T10:47:34;13.82;;;4.85;;
74793;SDS011;63320;50.768;6.724;2024-01-30T10:50:00;13.60;;;5.85;;
74793;SDS011;63320;50.768;6.724;2024-01-30T10:52:28;11.85;;;4.82;;
74793;SDS011;63320;50.768;6.724;2024-01-30T10:54:54;9.75;;;4.28;;
74793;SDS011;63320;50.768;6.724;2024-01-30T10:57:20;9.50;;;4.05;;
74793;SDS011;63320;50.768;6.724;2024-01-30T10:59:48;10.52;;;4.13;;
74793;SDS011;63320;50.768;6.724;2024-01-30T11:02:15;14.15;;;4.53;;
74793;SDS011;63320;50.768;6.724;2024-01-30T11:04:41;13.38;;;5.75;;
74793;SDS011;63320;50.768;6.724;2024-01-30T11:07:15;15.23;;;6.28;;
74793;SDS011;63320;50.768;6.724;2024-01-30T11:09:47;15.38;;;5.03;;
74793;SDS011;63320;50.768;6.724;2024-01-30T11:12:13;10.50;;;5.03;;
74793;SDS011;63320;50.768;6.724;2024-01-30T11:14:38;13.60;;;5.50;;
74793;SDS011;63320;50.768;6.724;2024-01-30T11:17:04;10.05;;;5.10;;
74793;SDS011;63320;50.768;6.724;2024-01-30T11:19:30;12.38;;;4.90;;
74793;SDS011;63320;50.768;6.724;2024-01-30T11:21:56;10.60;;;4.72;;
74793;SDS011;63320;50.768;6.724;2024-01-30T11:24:21;11.45;;;4.43;;
74793;SDS011;63320;50.768;6.724;2024-01-30T11:26:49;10.18;;;4.65;;
74793;SDS011;63320;50.768;6.724;2024-01-30T11:29:14;12.57;;;5.00;;
74793;SDS011;63320;50.768;6.724;2024-01-30T11:31:39;10.90;;;4.30;;
74793;SDS011;63320;50.768;6.724;2024-01-30T11:34:05;9.30;;;4.15;;
74793;SDS011;63320;50.768;6.724;2024-01-30T11:36:31;11.88;;;4.57;;
74793;SDS011;63320;50.768;6.724;2024-01-30T11:38:59;8.50;;;4.03;;
74793;SDS011;63320;50.768;6.724;2024-01-30T11:41:25;11.52;;;4.30;;
74793;SDS011;63320;50.768;6.724;2024-01-30T11:43:55;14.95;;;4.93;;
74793;SDS011;63320;50.768;6.724;2024-01-30T11:46:20;12.25;;;3.90;;
74793;SDS011;63320;50.768;6.724;2024-01-30T11:48:45;11.43;;;4.45;;
74793;SDS011;63320;50.768;6.724;2024-01-30T11:51:11;8.75;;;4.32;;
74793;SDS011;63320;50.768;6.724;2024-01-30T11:53:38;10.63;;;4.05;;
74793;SDS011;63320;50.768;6.724;2024-01-30T11:56:05;11.52;;;4.30;;
74793;SDS011;63320;50.768;6.724;2024-01-30T11:58:31;9.25;;;4.45;;
74793;SDS011;63320;50.768;6.724;2024-01-30T12:00:58;13.20;;;5.10;;
74793;SDS011;63320;50.768;6.724;2024-01-30T12:03:23;10.48;;;4.78;;
74793;SDS011;63320;50.768;6.724;2024-01-30T12:05:54;11.20;;;4.63;;
74793;SDS011;63320;50.768;6.724;2024-01-30T12:08:20;11.65;;;5.70;;
74793;SDS011;63320;50.768;6.724;2024-01-30T12:10:45;11.63;;;5.63;;
74793;SDS011;63320;50.768;6.724;2024-01-30T12:13:10;11.90;;;5.35;;
74793;SDS011;63320;50.768;6.724;2024-01-30T12:15:36;10.57;;;5.65;;
74793;SDS011;63320;50.768;6.724;2024-01-30T12:18:06;11.50;;;4.70;;
74793;SDS011;63320;50.768;6.724;2024-01-30T12:20:32;11.40;;;4.70;;
74793;SDS011;63320;50.768;6.724;2024-01-30T12:22:57;10.00;;;5.13;;
74793;SDS011;63320;50.768;6.724;2024-01-30T12:25:23;9.23;;;4.72;;
74793;SDS011;63320;50.768;6.724;2024-01-30T12:27:49;11.25;;;5.15;;
74793;SDS011;63320;50.768;6.724;2024-01-30T12:30:15;10.50;;;4.80;;
74793;SDS011;63320;50.768;6.724;2024-01-30T12:32:41;10.35;;;5.05;;
74793;SDS011;63320;50.768;6.724;2024-01-30T12:35:09;15.75;;;5.20;;
74793;SDS011;63320;50.768;6.724;2024-01-30T12:37:35;12.52;;;4.57;;
74793;SDS011;63320;50.768;6.724;2024-01-30T12:40:01;8.88;;;5.00;;
74793;SDS011;63320;50.768;6.724;2024-01-30T12:42:26;12.52;;;4.75;;
74793;SDS011;63320;50.768;6.724;2024-01-30T12:44:52;18.02;;;5.47;;
74793;SDS011;63320;50.768;6.724;2024-01-30T12:47:17;12.27;;;5.00;;
74793;SDS011;63320;50.768;6.724;2024-01-30T12:49:43;12.95;;;5.70;;
74793;SDS011;63320;50.768;6.724;2024-01-30T12:52:09;11.85;;;5.40;;
74793;SDS011;63320;50.768;6.724;2024-01-30T12:54:35;12.85;;;5.40;;
74793;SDS011;63320;50.768;6.724;2024-01-30T12:57:00;9.70;;;5.00;;
74793;SDS011;63320;50.768;6.724;2024-01-30T12:59:26;9.18;;;5.32;;
74793;SDS011;63320;50.768;6.724;2024-01-30T13:01:51;11.40;;;5.32;;
74793;SDS011;63320;50.768;6.724;2024-01-30T13:04:16;12.73;;;5.22;;
74793;SDS011;63320;50.768;6.724;2024-01-30T13:06:42;14.77;;;5.93;;
74793;SDS011;63320;50.768;6.724;2024-01-30T13:09:08;11.13;;;5.25;;
74793;SDS011;63320;50.768;6.724;2024-01-30T13:11:34;12.80;;;5.70;;
74793;SDS011;63320;50.768;6.724;2024-01-30T13:13:59;11.43;;;5.63;;
74793;SDS011;63320;50.768;6.724;2024-01-30T13:16:25;10.57;;;5.13;;
74793;SDS011;63320;50.768;6.724;2024-01-30T13:18:50;11.25;;;5.55;;
74793;SDS011;63320;50.768;6.724;2024-01-30T13:21:15;8.93;;;4.75;;
74793;SDS011;63320;50.768;6.724;2024-01-30T13:23:41;13.38;;;4.93;;
74793;SDS011;63320;50.768;6.724;2024-01-30T13:26:07;15.77;;;5.20;;
74793;SDS011;63320;50.768;6.724;2024-01-30T13:28:33;10.20;;;5.30;;
74793;SDS011;63320;50.768;6.724;2024-01-30T13:30:58;11.27;;;4.88;;
74793;SDS011;63320;50.768;6.724;2024-01-30T13:33:23;11.27;;;5.50;;
74793;SDS011;63320;50.768;6.724;2024-01-30T13:35:49;14.55;;;5.40;;
74793;SDS011;63320;50.768;6.724;2024-01-30T13:38:14;9.57;;;4.95;;
74793;SDS011;63320;50.768;6.724;2024-01-30T13:40:39;9.18;;;4.93;;
74793;SDS011;63320;50.768;6.724;2024-01-30T13:43:06;13.00;;;6.05;;
74793;SDS011;63320;50.768;6.724;2024-01-30T13:45:31;19.30;;;6.45;;
74793;SDS011;63320;50.768;6.724;2024-01-30T13:47:57;14.30;;;5.13;;
74793;SDS011;63320;50.768;6.724;2024-01-30T13:50:22;10.98;;;5.55;;
74793;SDS011;63320;50.768;6.724;2024-01-30T13:52:47;14.57;;;5.28;;
74793;SDS011;63320;50.768;6.724;2024-01-30T13:55:13;16.38;;;5.63;;
74793;SDS011;63320;50.768;6.724;2024-01-30T13:57:38;13.82;;;5.95;;
74793;SDS011;63320;50.768;6.724;2024-01-30T14:00:06;16.08;;;6.30;;
74793;SDS011;63320;50.768;6.724;2024-01-30T14:02:32;13.55;;;6.63;;
74793;SDS011;63320;50.768;6.724;2024-01-30T14:04:57;11.07;;;5.50;;
74793;SDS011;63320;50.768;6.724;2024-01-30T14:07:23;17.25;;;7.15;;
74793;SDS011;63320;50.768;6.724;2024-01-30T14:09:48;14.05;;;6.55;;
74793;SDS011;63320;50.768;6.724;2024-01-30T14:12:14;15.35;;;6.75;;
74793;SDS011;63320;50.768;6.724;2024-01-30T14:14:39;29.92;;;13.27;;
74793;SDS011;63320;50.768;6.724;2024-01-30T14:17:06;16.40;;;6.40;;
74793;SDS011;63320;50.768;6.724;2024-01-30T14:19:32;18.95;;;5.85;;
74793;SDS011;63320;50.768;6.724;2024-01-30T14:21:58;12.60;;;5.78;;
74793;SDS011;63320;50.768;6.724;2024-01-30T14:24:23;12.68;;;5.72;;
74793;SDS011;63320;50.768;6.724;2024-01-30T14:26:48;26.30;;;7.82;;